createdAt,value
2023-04-27T00:01:20.615Z,57.63
2023-04-27T00:03:54.948Z,62.20
2023-04-27T00:06:28.932Z,66.45
2023-04-27T00:09:02.492Z,64.22
2023-04-27T00:11:37.272Z,64.97
2023-04-27T00:14:10.614Z,54.47
2023-04-27T00:16:44.431Z,58.08
2023-04-27T00:19:18.201Z,65.43
2023-04-27T00:21:51.821Z,56.15
2023-04-27T00:24:25.421Z,55.03
2023-04-27T00:27:00.356Z,55.13
2023-04-27T00:29:33.524Z,60.20
2023-04-27T00:32:06.464Z,56.83
2023-04-27T00:34:39.513Z,60.45
2023-04-27T00:37:12.418Z,60.90
2023-04-27T00:39:45.329Z,59.05
2023-04-27T00:42:21.252Z,52.45
2023-04-27T00:44:56.876Z,57.63
2023-04-27T00:47:30.078Z,64.78
2023-04-27T00:50:03.384Z,56.47
2023-04-27T00:52:36.561Z,56.05
2023-04-27T00:55:10.682Z,59.65
2023-04-27T00:57:48.487Z,48.92
2023-04-27T01:00:22.653Z,50.90
2023-04-27T01:02:58.576Z,59.60
2023-04-27T01:05:32.786Z,49.47
2023-04-27T01:08:07.250Z,46.30
2023-04-27T01:10:40.620Z,44.53
2023-04-27T01:13:17.659Z,46.55
2023-04-27T01:15:50.723Z,50.45
2023-04-27T01:21:19.055Z,56.70
2023-04-27T01:23:54.407Z,51.40
2023-04-27T01:26:28.359Z,48.10
2023-04-27T01:29:02.027Z,53.38
2023-04-27T01:31:35.327Z,52.45
2023-04-27T01:34:08.472Z,51.30
2023-04-27T01:36:41.675Z,55.60
2023-04-27T01:39:16.532Z,46.22
2023-04-27T01:41:49.642Z,50.47
2023-04-27T01:44:24.439Z,53.90
2023-04-27T01:46:57.645Z,54.22
2023-04-27T01:49:30.760Z,55.20
2023-04-27T01:52:03.916Z,55.42
2023-04-27T01:54:41.080Z,52.95
2023-04-27T01:57:15.718Z,52.42
2023-04-27T01:59:49.019Z,47.50
2023-04-27T02:02:22.347Z,51.80
2023-04-27T02:04:55.660Z,51.17
2023-04-27T02:07:29.023Z,51.30
2023-04-27T02:10:03.706Z,55.13
2023-04-27T02:12:37.114Z,46.33
2023-04-27T02:15:11.404Z,47.60
2023-04-27T02:17:45.587Z,47.50
2023-04-27T02:20:19.475Z,39.42
2023-04-27T02:22:52.980Z,48.70
2023-04-27T02:25:28.613Z,50.75
2023-04-27T02:28:02.147Z,44.20
2023-04-27T02:30:35.921Z,46.80
2023-04-27T02:33:09.106Z,46.78
2023-04-27T02:35:42.288Z,40.08
2023-04-27T02:38:15.596Z,40.70
2023-04-27T02:40:50.979Z,39.58
2023-04-27T02:43:24.514Z,45.15
2023-04-27T02:45:57.344Z,43.20
2023-04-27T02:48:30.469Z,47.55
2023-04-27T02:51:03.725Z,43.50
2023-04-27T02:53:36.613Z,47.35
2023-04-27T02:56:11.469Z,33.08
2023-04-27T02:58:44.804Z,35.88
2023-04-27T03:01:20.150Z,40.00
2023-04-27T03:03:54.022Z,39.97
2023-04-27T03:06:27.436Z,42.03
2023-04-27T03:09:00.609Z,42.90
2023-04-27T03:11:37.265Z,38.30
2023-04-27T03:14:10.985Z,48.35
2023-04-27T03:16:44.220Z,37.47
2023-04-27T03:19:19.389Z,42.03
2023-04-27T03:21:52.594Z,46.03
2023-04-27T03:24:27.001Z,38.78
2023-04-27T03:27:04.010Z,40.70
2023-04-27T03:29:36.914Z,43.85
2023-04-27T03:32:11.107Z,45.80
2023-04-27T03:34:44.084Z,45.85
2023-04-27T03:37:17.217Z,43.47
2023-04-27T03:39:50.610Z,47.20
2023-04-27T03:42:25.843Z,53.33
2023-04-27T03:44:59.127Z,41.45
2023-04-27T03:47:32.769Z,54.83
2023-04-27T03:50:06.545Z,58.10
2023-04-27T03:52:39.392Z,58.70
2023-04-27T03:55:12.700Z,50.25
2023-04-27T03:57:49.279Z,56.28
2023-04-27T04:00:23.176Z,52.72
2023-04-27T04:02:57.043Z,49.03
2023-04-27T04:05:31.716Z,58.00
2023-04-27T04:08:05.410Z,59.47
2023-04-27T04:10:39.677Z,55.40
2023-04-27T04:13:14.678Z,55.97
2023-04-27T04:15:47.607Z,56.03
2023-04-27T04:18:20.812Z,66.53
2023-04-27T04:20:54.379Z,61.97
2023-04-27T04:23:28.735Z,58.43
2023-04-27T04:26:03.271Z,52.60
2023-04-27T04:28:42.408Z,54.93
2023-04-27T04:31:18.348Z,63.30
2023-04-27T04:33:51.508Z,62.37
2023-04-27T04:36:25.354Z,56.67
2023-04-27T04:39:00.501Z,59.23
2023-04-27T04:41:34.038Z,51.47
2023-04-27T04:44:09.552Z,55.00
2023-04-27T04:46:42.872Z,56.33
2023-04-27T04:49:16.164Z,50.53
2023-04-27T04:51:49.642Z,51.70
2023-04-27T04:54:22.950Z,53.97
2023-04-27T04:56:56.555Z,56.60
2023-04-27T04:59:36.799Z,41.20
2023-04-27T05:02:10.405Z,58.47
2023-04-27T05:04:44.065Z,53.67
2023-04-27T05:07:20.889Z,46.23
2023-04-27T05:09:57.190Z,53.57
2023-04-27T05:12:30.606Z,54.83
2023-04-27T05:15:06.275Z,53.73
2023-04-27T05:17:39.672Z,49.10
2023-04-27T05:20:14.209Z,56.80
2023-04-27T05:22:47.712Z,46.93
2023-04-27T05:25:21.278Z,49.23
2023-04-27T05:27:54.097Z,49.27
2023-04-27T05:30:29.008Z,51.67
2023-04-27T05:33:03.360Z,47.47
2023-04-27T05:35:37.139Z,41.13
2023-04-27T05:38:10.445Z,48.40
2023-04-27T05:40:43.964Z,46.40
2023-04-27T05:43:17.076Z,46.57
2023-04-27T05:45:53.043Z,49.33
2023-04-27T05:48:25.931Z,48.00
2023-04-27T05:51:05.035Z,50.17
2023-04-27T05:53:38.131Z,51.87
2023-04-27T05:56:14.243Z,45.70
2023-04-27T05:58:47.830Z,47.63
2023-04-27T06:01:23.272Z,46.57
2023-04-27T06:03:56.645Z,46.40
2023-04-27T06:06:30.270Z,47.23
2023-04-27T06:09:03.898Z,50.60
2023-04-27T06:11:37.476Z,45.90
2023-04-27T06:14:11.132Z,45.13
2023-04-27T06:16:45.813Z,48.80
2023-04-27T06:19:18.931Z,50.83
2023-04-27T06:21:52.095Z,50.30
2023-04-27T06:24:26.128Z,47.30
2023-04-27T06:26:59.767Z,41.60
2023-04-27T06:29:33.401Z,45.80
2023-04-27T06:32:09.222Z,41.33
2023-04-27T06:34:42.757Z,40.00
2023-04-27T06:37:16.297Z,45.17
2023-04-27T06:39:50.033Z,38.60
2023-04-27T06:42:23.199Z,43.17
2023-04-27T06:45:00.362Z,46.20
2023-04-27T06:47:36.489Z,41.47
2023-04-27T06:50:10.110Z,38.90
2023-04-27T06:52:42.942Z,36.57
2023-04-27T06:55:16.458Z,43.77
2023-04-27T06:57:49.525Z,47.07
2023-04-27T07:00:23.180Z,41.93
2023-04-27T07:02:58.161Z,36.43
2023-04-27T07:05:31.491Z,43.77
2023-04-27T07:08:07.937Z,35.70
2023-04-27T07:10:42.411Z,45.90
2023-04-27T07:13:15.929Z,41.50
2023-04-27T07:15:49.657Z,39.63
2023-04-27T07:18:25.199Z,40.30
2023-04-27T07:20:59.483Z,40.27
2023-04-27T07:23:32.913Z,31.63
2023-04-27T07:26:07.941Z,38.53
2023-04-27T07:28:41.344Z,36.67
2023-04-27T07:31:15.592Z,37.80
2023-04-27T07:33:54.595Z,41.47
2023-04-27T07:36:28.703Z,36.27
2023-04-27T07:39:02.140Z,43.67
2023-04-27T07:41:37.267Z,31.33
2023-04-27T07:44:10.913Z,41.40
2023-04-27T07:46:44.752Z,31.13
2023-04-27T07:49:22.232Z,37.87
2023-04-27T07:51:55.866Z,38.97
2023-04-27T07:54:29.483Z,42.23
2023-04-27T07:57:03.666Z,32.53
2023-04-27T07:59:36.946Z,33.97
2023-04-27T08:02:18.334Z,34.70
2023-04-27T08:05:02.895Z,35.73
2023-04-27T08:07:41.207Z,37.43
2023-04-27T08:10:20.253Z,31.67
2023-04-27T08:12:53.501Z,28.40
2023-04-27T08:15:27.072Z,34.00
2023-04-27T08:18:00.642Z,32.67
2023-04-27T08:20:36.182Z,36.23
2023-04-27T08:23:09.708Z,37.90
2023-04-27T08:25:42.588Z,36.23
2023-04-27T08:28:15.387Z,42.20
2023-04-27T08:30:48.561Z,37.83
2023-04-27T08:33:22.418Z,34.37
2023-04-27T08:36:07.268Z,29.00
2023-04-27T08:38:41.025Z,37.20
2023-04-27T08:41:21.218Z,42.50
2023-04-27T08:43:57.347Z,37.40
2023-04-27T08:46:32.984Z,38.27
2023-04-27T08:49:06.359Z,35.97
2023-04-27T08:51:43.140Z,35.83
2023-04-27T08:54:16.438Z,33.87
2023-04-27T08:56:50.251Z,36.20
2023-04-27T08:59:23.653Z,45.90
2023-04-27T09:01:57.510Z,36.53
2023-04-27T09:04:42.208Z,33.83
2023-04-27T09:07:21.818Z,33.73
2023-04-27T09:09:54.745Z,34.47
2023-04-27T09:12:27.880Z,39.63
2023-04-27T09:15:06.758Z,36.17
2023-04-27T09:17:40.028Z,34.90
2023-04-27T09:20:14.551Z,35.33
2023-04-27T09:22:56.619Z,32.70
2023-04-27T09:25:30.804Z,35.37
2023-04-27T09:28:05.115Z,34.20
2023-04-27T09:30:38.186Z,45.37
2023-04-27T09:33:10.999Z,43.87
2023-04-27T09:35:49.422Z,36.50
2023-04-27T09:38:25.999Z,32.17
2023-04-27T09:40:59.960Z,43.47
2023-04-27T09:43:34.507Z,40.47
2023-04-27T09:46:09.268Z,39.97
2023-04-27T09:48:44.233Z,39.60
2023-04-27T09:51:19.882Z,62.03
2023-04-27T09:53:59.724Z,74.20
2023-04-27T09:56:43.972Z,72.50
2023-04-27T09:59:53.696Z,83.17
2023-04-27T10:02:33.131Z,87.10
2023-04-27T10:05:28.419Z,80.70
2023-04-27T10:08:02.024Z,75.83
2023-04-27T10:10:50.777Z,73.73
2023-04-27T10:13:28.177Z,85.93
2023-04-27T10:16:01.968Z,81.47
2023-04-27T10:18:35.444Z,75.17
2023-04-27T10:21:15.204Z,83.77
2023-04-27T10:23:52.682Z,72.23
2023-04-27T10:26:32.997Z,85.57
2023-04-27T10:29:12.127Z,79.60
2023-04-27T10:31:51.405Z,83.23
2023-04-27T10:34:25.102Z,77.83
2023-04-27T10:37:10.442Z,91.23
2023-04-27T10:39:49.152Z,72.43
2023-04-27T10:42:34.234Z,78.63
2023-04-27T10:45:07.804Z,80.63
2023-04-27T10:47:44.927Z,75.73
2023-04-27T10:50:20.080Z,80.97
2023-04-27T10:52:53.407Z,76.17
2023-04-27T10:55:30.013Z,82.00
2023-04-27T10:58:05.517Z,85.90
2023-04-27T11:00:39.762Z,76.20
2023-04-27T11:03:18.537Z,77.73
2023-04-27T11:05:53.985Z,86.33
2023-04-27T11:08:27.767Z,79.10
2023-04-27T11:11:01.798Z,84.87
2023-04-27T11:13:37.174Z,76.07
2023-04-27T11:16:10.333Z,89.93
2023-04-27T11:18:43.725Z,82.40
2023-04-27T11:21:18.871Z,77.90
2023-04-27T11:23:51.721Z,87.47
2023-04-27T11:26:27.665Z,89.07
2023-04-27T11:29:07.471Z,78.07
2023-04-27T11:31:53.227Z,90.70
2023-04-27T11:34:27.927Z,88.90
2023-04-27T11:39:43.106Z,81.50
2023-04-27T11:42:26.231Z,85.00
2023-04-27T11:45:03.033Z,79.53
2023-04-27T11:47:37.449Z,89.47
2023-04-27T11:50:11.976Z,83.07
2023-04-27T11:52:46.611Z,84.00
2023-04-27T11:55:20.142Z,84.70
2023-04-27T11:57:56.869Z,84.47
2023-04-27T12:00:32.681Z,85.17
2023-04-27T12:03:07.252Z,81.23
2023-04-27T12:05:51.119Z,85.37
2023-04-27T12:08:24.516Z,80.37
2023-04-27T12:10:59.371Z,86.20
2023-04-27T12:13:32.800Z,81.00
2023-04-27T12:16:09.151Z,95.63
2023-04-27T12:18:42.084Z,86.43
2023-04-27T12:21:15.776Z,95.30
2023-04-27T12:23:49.266Z,90.50
2023-04-27T12:26:22.536Z,83.77
2023-04-27T12:28:56.118Z,83.30
2023-04-27T12:31:32.543Z,83.13
2023-04-27T12:34:06.250Z,79.77
2023-04-27T12:36:39.626Z,86.17
2023-04-27T12:39:21.356Z,80.03
2023-04-27T12:41:54.704Z,82.73
2023-04-27T12:44:28.160Z,82.50
2023-04-27T12:47:02.815Z,87.27
2023-04-27T12:49:37.665Z,91.20
2023-04-27T12:52:11.462Z,86.63
2023-04-27T12:54:45.200Z,79.67
2023-04-27T12:57:18.914Z,81.73
2023-04-27T12:59:53.523Z,80.67
2023-04-27T13:02:30.587Z,77.73
2023-04-27T13:05:05.364Z,71.70
2023-04-27T13:07:42.587Z,73.40
2023-04-27T13:10:16.718Z,83.13
2023-04-27T13:12:50.543Z,85.83
2023-04-27T13:15:24.761Z,72.20
2023-04-27T13:18:03.143Z,77.37
2023-04-27T13:20:38.164Z,76.40
2023-04-27T13:23:16.138Z,77.87
2023-04-27T13:25:49.448Z,79.37
2023-04-27T13:28:29.799Z,77.83
2023-04-27T13:31:02.654Z,81.27
2023-04-27T13:33:43.970Z,76.07
2023-04-27T13:36:17.466Z,89.13
2023-04-27T13:38:51.695Z,91.87
2023-04-27T13:41:25.843Z,88.87
2023-04-27T13:44:00.173Z,93.97
2023-04-27T13:46:34.346Z,99.20
2023-04-27T13:49:10.063Z,99.23
2023-04-27T13:51:46.919Z,87.27
2023-04-27T13:54:19.875Z,92.77
2023-04-27T13:56:53.615Z,95.93
2023-04-27T13:59:27.199Z,98.00
2023-04-27T14:02:04.306Z,91.77
2023-04-27T14:04:39.573Z,91.13
2023-04-27T14:07:16.830Z,85.07
2023-04-27T14:09:50.068Z,84.27
2023-04-27T14:12:23.281Z,97.90
2023-04-27T14:14:57.908Z,83.00
2023-04-27T14:17:31.810Z,80.27
2023-04-27T14:20:10.263Z,78.53
2023-04-27T14:22:44.418Z,75.80
2023-04-27T14:25:17.682Z,84.60
2023-04-27T14:27:57.028Z,83.30
2023-04-27T14:30:31.871Z,72.83
2023-04-27T14:33:05.272Z,73.03
2023-04-27T14:35:41.057Z,78.03
2023-04-27T14:38:13.908Z,71.53
2023-04-27T14:40:47.302Z,80.77
2023-04-27T14:43:25.204Z,73.67
2023-04-27T14:46:19.144Z,67.37
2023-04-27T14:48:54.842Z,62.57
2023-04-27T14:51:32.523Z,60.90
2023-04-27T14:54:05.564Z,67.60
2023-04-27T14:56:38.616Z,63.27
2023-04-27T14:59:12.817Z,60.57
2023-04-27T15:01:46.187Z,67.90
2023-04-27T15:04:19.743Z,56.97
2023-04-27T15:06:57.048Z,60.87
2023-04-27T15:09:31.464Z,69.23
2023-04-27T15:12:05.128Z,59.90
2023-04-27T15:14:38.535Z,56.53
2023-04-27T15:17:12.389Z,54.73
2023-04-27T15:19:47.033Z,57.23
2023-04-27T15:22:24.635Z,56.63
2023-04-27T15:24:57.792Z,59.50
2023-04-27T15:27:30.964Z,60.97
2023-04-27T15:30:05.593Z,58.30
2023-04-27T15:32:38.433Z,65.37
2023-04-27T15:35:12.343Z,58.97
2023-04-27T15:37:47.798Z,55.43
2023-04-27T15:40:21.712Z,65.10
2023-04-27T15:42:55.443Z,60.40
2023-04-27T15:45:28.569Z,59.50
2023-04-27T15:48:01.857Z,52.60
2023-04-27T15:50:37.150Z,55.23
2023-04-27T15:53:12.455Z,54.80
2023-04-27T15:55:47.029Z,54.77
2023-04-27T15:58:20.935Z,58.40
2023-04-27T16:00:55.429Z,63.97
2023-04-27T16:03:28.973Z,56.43
2023-04-27T16:06:01.823Z,57.17
2023-04-27T16:08:37.763Z,60.13
2023-04-27T16:11:11.493Z,57.43
2023-04-27T16:13:45.072Z,53.90
2023-04-27T16:16:23.257Z,56.23
2023-04-27T16:18:56.936Z,56.57
2023-04-27T16:21:31.395Z,49.90
2023-04-27T16:24:06.862Z,48.50
2023-04-27T16:26:40.293Z,41.53
2023-04-27T16:29:14.844Z,42.67
2023-04-27T16:31:47.978Z,37.43
2023-04-27T16:34:21.086Z,43.27
2023-04-27T16:36:54.340Z,44.53
2023-04-27T16:39:29.782Z,37.13
2023-04-27T16:42:03.491Z,42.20
2023-04-27T16:44:36.757Z,42.13
2023-04-27T16:47:09.622Z,34.23
2023-04-27T16:49:42.436Z,37.40
2023-04-27T16:52:15.843Z,37.57
2023-04-27T16:54:50.916Z,41.00
2023-04-27T16:57:24.286Z,40.40
2023-04-27T16:59:58.160Z,36.33
2023-04-27T17:02:31.587Z,36.90
2023-04-27T17:05:05.405Z,41.30
2023-04-27T17:07:39.024Z,37.33
2023-04-27T17:10:14.625Z,38.53
2023-04-27T17:12:48.134Z,33.23
2023-04-27T17:15:22.151Z,40.67
2023-04-27T17:17:55.791Z,31.23
2023-04-27T17:20:29.391Z,33.93
2023-04-27T17:23:02.815Z,36.63
2023-04-27T17:25:38.279Z,39.20
2023-04-27T17:28:11.510Z,36.93
2023-04-27T17:30:44.864Z,35.37
2023-04-27T17:33:18.524Z,36.10
2023-04-27T17:35:51.399Z,38.70
2023-04-27T17:38:24.869Z,39.07
2023-04-27T17:41:00.342Z,41.43
2023-04-27T17:43:33.948Z,38.83
2023-04-27T17:46:12.179Z,36.33
2023-04-27T17:48:45.336Z,35.37
2023-04-27T17:51:18.916Z,36.90
2023-04-27T17:53:52.373Z,38.37
2023-04-27T17:56:27.017Z,35.80
2023-04-27T17:59:00.887Z,38.37
2023-04-27T18:01:34.931Z,34.40
2023-04-27T18:04:09.042Z,44.47
2023-04-27T18:06:42.562Z,42.17
2023-04-27T18:09:16.295Z,43.07
2023-04-27T18:11:51.238Z,39.63
2023-04-27T18:14:24.617Z,44.00
2023-04-27T18:16:57.846Z,43.83
2023-04-27T18:19:30.951Z,42.47
2023-04-27T18:22:04.114Z,41.17
2023-04-27T18:24:37.327Z,35.07
2023-04-27T18:27:12.639Z,43.10
2023-04-27T18:29:46.236Z,48.10
2023-04-27T18:32:19.549Z,44.03
2023-04-27T18:34:52.875Z,51.10
2023-04-27T18:37:26.688Z,52.63
2023-04-27T18:39:59.528Z,50.83
2023-04-27T18:42:34.127Z,48.50
2023-04-27T18:45:07.619Z,47.70
2023-04-27T18:47:41.197Z,52.93
2023-04-27T18:50:16.470Z,51.17
2023-04-27T18:52:50.168Z,49.43
2023-04-27T18:55:24.259Z,56.03
2023-04-27T18:57:59.760Z,53.53
2023-04-27T19:00:33.296Z,50.43
2023-04-27T19:03:06.659Z,46.43
2023-04-27T19:05:39.761Z,48.47
2023-04-27T19:08:12.728Z,52.17
2023-04-27T19:10:46.313Z,50.77
2023-04-27T19:13:21.468Z,45.50
2023-04-27T19:15:55.297Z,52.83
2023-04-27T19:18:28.858Z,53.47
2023-04-27T19:21:02.375Z,53.33
2023-04-27T19:23:36.047Z,53.90
2023-04-27T19:26:13.204Z,49.90
2023-04-27T19:28:49.705Z,54.43
2023-04-27T19:31:24.603Z,51.40
2023-04-27T19:34:04.063Z,54.40
2023-04-27T19:36:37.359Z,55.87
2023-04-27T19:39:10.437Z,49.17
2023-04-27T19:41:44.228Z,58.53
2023-04-27T19:44:19.854Z,59.27
2023-04-27T19:46:53.088Z,54.07
2023-04-27T19:49:26.331Z,53.37
2023-04-27T19:51:59.147Z,50.50
2023-04-27T19:54:32.656Z,47.70
2023-04-27T19:57:05.894Z,52.43
2023-04-27T19:59:41.329Z,49.50
2023-04-27T20:02:15.447Z,47.70
2023-04-27T20:04:48.990Z,47.87
2023-04-27T20:07:22.735Z,52.30
2023-04-27T20:09:55.982Z,44.73
2023-04-27T20:12:43.626Z,53.83
2023-04-27T20:15:23.129Z,51.83
2023-04-27T20:17:56.559Z,45.83
2023-04-27T20:20:30.309Z,44.83
2023-04-27T20:23:03.729Z,48.43
2023-04-27T20:25:37.775Z,46.67
2023-04-27T20:28:11.037Z,50.03
2023-04-27T20:30:46.155Z,47.13
2023-04-27T20:33:19.508Z,51.97
2023-04-27T20:35:58.666Z,55.20
2023-04-27T20:38:34.163Z,49.07
2023-04-27T20:41:07.277Z,43.70
2023-04-27T20:43:41.449Z,48.10
2023-04-27T20:46:17.961Z,55.90
2023-04-27T20:48:51.595Z,50.47
2023-04-27T20:51:25.559Z,53.40
2023-04-27T20:53:59.482Z,44.40
2023-04-27T20:56:34.800Z,55.57
2023-04-27T20:59:08.291Z,46.73
2023-04-27T21:01:43.195Z,47.00
2023-04-27T21:04:17.228Z,46.20
2023-04-27T21:06:51.272Z,50.30
2023-04-27T21:09:25.311Z,46.20
2023-04-27T21:11:58.648Z,47.17
2023-04-27T21:14:31.437Z,52.60
2023-04-27T21:17:06.340Z,52.40
2023-04-27T21:19:39.960Z,53.53
2023-04-27T21:22:13.789Z,51.40
2023-04-27T21:24:47.405Z,46.63
2023-04-27T21:27:20.936Z,43.70
2023-04-27T21:29:54.780Z,47.97
2023-04-27T21:32:30.392Z,50.03
2023-04-27T21:35:03.829Z,48.60
2023-04-27T21:37:37.160Z,47.83
2023-04-27T21:40:11.371Z,54.50
2023-04-27T21:42:44.206Z,50.67
2023-04-27T21:45:16.933Z,49.10
2023-04-27T21:47:52.132Z,47.80
2023-04-27T21:50:25.840Z,51.63
2023-04-27T21:52:59.426Z,43.03
2023-04-27T21:55:32.978Z,47.30
2023-04-27T21:58:06.112Z,47.07
2023-04-27T22:00:39.423Z,48.20
2023-04-27T22:03:14.590Z,49.43
2023-04-27T22:05:50.356Z,50.00
2023-04-27T22:08:23.652Z,46.70
2023-04-27T22:10:57.010Z,45.40
2023-04-27T22:13:30.832Z,47.30
2023-04-27T22:16:04.223Z,48.47
2023-04-27T22:18:39.732Z,46.17
2023-04-27T22:21:13.826Z,43.53
2023-04-27T22:23:47.319Z,44.77
2023-04-27T22:26:20.923Z,48.83
2023-04-27T22:28:54.475Z,43.00
2023-04-27T22:31:28.559Z,43.40
2023-04-27T22:34:04.109Z,48.20
2023-04-27T22:36:38.147Z,44.83
2023-04-27T22:39:11.583Z,42.17
2023-04-27T22:41:45.047Z,45.90
2023-04-27T22:44:18.581Z,49.37
2023-04-27T22:46:51.532Z,43.53
2023-04-27T22:49:27.124Z,38.57
2023-04-27T22:52:00.894Z,39.13
2023-04-27T22:54:34.636Z,43.10
2023-04-27T22:57:07.943Z,42.47
2023-04-27T22:59:40.817Z,37.80
2023-04-27T23:02:13.634Z,35.47
2023-04-27T23:04:48.828Z,42.20
2023-04-27T23:07:22.291Z,33.43
2023-04-27T23:09:56.577Z,46.83
2023-04-27T23:12:30.193Z,42.23
2023-04-27T23:15:04.152Z,41.27
2023-04-27T23:17:38.133Z,51.17
2023-04-27T23:20:27.454Z,47.23
2023-04-27T23:23:02.046Z,38.53
2023-04-27T23:25:36.798Z,37.57
2023-04-27T23:28:10.260Z,41.67
2023-04-27T23:30:43.455Z,38.33
2023-04-27T23:33:16.924Z,39.43
2023-04-27T23:35:52.193Z,40.97
2023-04-27T23:38:25.345Z,40.87
2023-04-27T23:40:58.076Z,42.33
2023-04-27T23:43:31.559Z,47.73
2023-04-27T23:46:05.540Z,51.87
2023-04-27T23:48:39.317Z,43.50
2023-04-27T23:51:14.599Z,38.23
2023-04-27T23:53:47.909Z,37.60
2023-04-27T23:56:22.216Z,37.63
2023-04-27T23:58:55.463Z,39.17
